sensor_id;sensor_type;location;lat;lon;timestamp;P1;durP1;ratioP1;P2;durP2;ratioP2
5867;SDS011;2960;49.142;7.768;2024-02-21T00:00:26;12.40;;;4.30;;
5867;SDS011;2960;49.142;7.768;2024-02-21T00:02:55;10.20;;;4.10;;
5867;SDS011;2960;49.142;7.768;2024-02-21T00:05:24;12.40;;;4.27;;
5867;SDS011;2960;49.142;7.768;2024-02-21T00:07:51;10.47;;;4.20;;
5867;SDS011;2960;49.142;7.768;2024-02-21T00:10:18;10.60;;;3.80;;
5867;SDS011;2960;49.142;7.768;2024-02-21T00:12:45;11.03;;;3.60;;
5867;SDS011;2960;49.142;7.768;2024-02-21T00:15:15;10.33;;;4.10;;
5867;SDS011;2960;49.142;7.768;2024-02-21T00:17:43;10.10;;;3.90;;
5867;SDS011;2960;49.142;7.768;2024-02-21T00:20:12;11.40;;;4.70;;
5867;SDS011;2960;49.142;7.768;2024-02-21T00:22:39;11.43;;;3.83;;
5867;SDS011;2960;49.142;7.768;2024-02-21T00:25:07;9.87;;;3.80;;
5867;SDS011;2960;49.142;7.768;2024-02-21T00:27:35;10.90;;;4.03;;
5867;SDS011;2960;49.142;7.768;2024-02-21T00:30:05;11.43;;;4.00;;
5867;SDS011;2960;49.142;7.768;2024-02-21T00:32:33;11.67;;;3.83;;
5867;SDS011;2960;49.142;7.768;2024-02-21T00:35:00;11.77;;;4.33;;
5867;SDS011;2960;49.142;7.768;2024-02-21T00:37:29;10.40;;;4.20;;
5867;SDS011;2960;49.142;7.768;2024-02-21T00:39:57;11.33;;;4.47;;
5867;SDS011;2960;49.142;7.768;2024-02-21T00:42:33;9.93;;;3.60;;
5867;SDS011;2960;49.142;7.768;2024-02-21T00:45:00;10.67;;;3.97;;
5867;SDS011;2960;49.142;7.768;2024-02-21T00:47:27;11.17;;;4.03;;
5867;SDS011;2960;49.142;7.768;2024-02-21T00:49:54;13.10;;;4.10;;
5867;SDS011;2960;49.142;7.768;2024-02-21T00:52:22;10.83;;;3.57;;
5867;SDS011;2960;49.142;7.768;2024-02-21T00:54:50;10.43;;;4.07;;
5867;SDS011;2960;49.142;7.768;2024-02-21T00:57:17;11.40;;;4.30;;
5867;SDS011;2960;49.142;7.768;2024-02-21T00:59:47;11.03;;;3.97;;
5867;SDS011;2960;49.142;7.768;2024-02-21T01:02:17;10.63;;;3.70;;
5867;SDS011;2960;49.142;7.768;2024-02-21T01:04:44;10.30;;;3.90;;
5867;SDS011;2960;49.142;7.768;2024-02-21T01:07:11;12.20;;;4.37;;
5867;SDS011;2960;49.142;7.768;2024-02-21T01:09:38;9.73;;;3.63;;
5867;SDS011;2960;49.142;7.768;2024-02-21T01:12:07;10.07;;;3.67;;
5867;SDS011;2960;49.142;7.768;2024-02-21T01:14:34;10.03;;;3.93;;
5867;SDS011;2960;49.142;7.768;2024-02-21T01:17:01;10.00;;;3.77;;
5867;SDS011;2960;49.142;7.768;2024-02-21T01:19:28;10.10;;;3.90;;
5867;SDS011;2960;49.142;7.768;2024-02-21T01:21:55;11.00;;;3.70;;
5867;SDS011;2960;49.142;7.768;2024-02-21T01:24:22;10.50;;;4.17;;
5867;SDS011;2960;49.142;7.768;2024-02-21T01:26:50;11.30;;;4.03;;
5867;SDS011;2960;49.142;7.768;2024-02-21T01:29:18;10.80;;;4.00;;
5867;SDS011;2960;49.142;7.768;2024-02-21T01:31:45;10.67;;;4.00;;
5867;SDS011;2960;49.142;7.768;2024-02-21T01:34:12;10.70;;;4.30;;
5867;SDS011;2960;49.142;7.768;2024-02-21T01:36:40;10.70;;;3.80;;
5867;SDS011;2960;49.142;7.768;2024-02-21T01:39:07;12.30;;;3.97;;
5867;SDS011;2960;49.142;7.768;2024-02-21T01:41:36;10.40;;;3.60;;
5867;SDS011;2960;49.142;7.768;2024-02-21T01:44:03;10.63;;;3.77;;
5867;SDS011;2960;49.142;7.768;2024-02-21T01:46:32;10.70;;;3.97;;
5867;SDS011;2960;49.142;7.768;2024-02-21T01:48:59;9.90;;;3.50;;
5867;SDS011;2960;49.142;7.768;2024-02-21T01:51:27;10.17;;;3.93;;
5867;SDS011;2960;49.142;7.768;2024-02-21T01:53:55;10.97;;;3.83;;
5867;SDS011;2960;49.142;7.768;2024-02-21T01:56:24;9.80;;;3.73;;
5867;SDS011;2960;49.142;7.768;2024-02-21T01:58:51;10.30;;;3.70;;
5867;SDS011;2960;49.142;7.768;2024-02-21T02:01:21;9.97;;;3.60;;
5867;SDS011;2960;49.142;7.768;2024-02-21T02:03:50;9.50;;;3.77;;
5867;SDS011;2960;49.142;7.768;2024-02-21T02:06:17;10.10;;;4.00;;
5867;SDS011;2960;49.142;7.768;2024-02-21T02:08:44;12.00;;;3.60;;
5867;SDS011;2960;49.142;7.768;2024-02-21T02:11:13;10.33;;;3.57;;
5867;SDS011;2960;49.142;7.768;2024-02-21T02:13:41;10.20;;;3.73;;
5867;SDS011;2960;49.142;7.768;2024-02-21T02:16:08;10.60;;;3.53;;
5867;SDS011;2960;49.142;7.768;2024-02-21T02:18:35;9.70;;;3.60;;
5867;SDS011;2960;49.142;7.768;2024-02-21T02:21:04;12.90;;;4.37;;
5867;SDS011;2960;49.142;7.768;2024-02-21T02:23:38;10.20;;;3.67;;
5867;SDS011;2960;49.142;7.768;2024-02-21T02:26:06;10.40;;;3.70;;
5867;SDS011;2960;49.142;7.768;2024-02-21T02:28:33;9.47;;;3.53;;
5867;SDS011;2960;49.142;7.768;2024-02-21T02:31:00;10.00;;;3.60;;
5867;SDS011;2960;49.142;7.768;2024-02-21T02:33:28;10.57;;;3.70;;
5867;SDS011;2960;49.142;7.768;2024-02-21T02:35:55;11.30;;;4.00;;
5867;SDS011;2960;49.142;7.768;2024-02-21T02:38:23;10.33;;;4.03;;
5867;SDS011;2960;49.142;7.768;2024-02-21T02:40:52;9.50;;;3.57;;
5867;SDS011;2960;49.142;7.768;2024-02-21T02:43:19;9.50;;;3.60;;
5867;SDS011;2960;49.142;7.768;2024-02-21T02:45:46;10.20;;;3.53;;
5867;SDS011;2960;49.142;7.768;2024-02-21T02:48:13;9.70;;;3.60;;
5867;SDS011;2960;49.142;7.768;2024-02-21T02:50:41;11.73;;;4.50;;
5867;SDS011;2960;49.142;7.768;2024-02-21T02:53:08;10.20;;;3.77;;
5867;SDS011;2960;49.142;7.768;2024-02-21T02:55:35;11.70;;;3.70;;
5867;SDS011;2960;49.142;7.768;2024-02-21T02:58:05;9.40;;;3.57;;
5867;SDS011;2960;49.142;7.768;2024-02-21T03:00:33;10.63;;;3.53;;
5867;SDS011;2960;49.142;7.768;2024-02-21T03:03:01;10.07;;;3.53;;
5867;SDS011;2960;49.142;7.768;2024-02-21T03:05:29;11.10;;;3.70;;
5867;SDS011;2960;49.142;7.768;2024-02-21T03:07:56;9.50;;;3.60;;
5867;SDS011;2960;49.142;7.768;2024-02-21T03:10:23;10.50;;;3.60;;
5867;SDS011;2960;49.142;7.768;2024-02-21T03:12:51;9.60;;;3.50;;
5867;SDS011;2960;49.142;7.768;2024-02-21T03:15:20;10.03;;;3.83;;
5867;SDS011;2960;49.142;7.768;2024-02-21T03:17:47;11.30;;;3.70;;
5867;SDS011;2960;49.142;7.768;2024-02-21T03:20:14;10.23;;;3.50;;
5867;SDS011;2960;49.142;7.768;2024-02-21T03:22:42;9.97;;;3.43;;
5867;SDS011;2960;49.142;7.768;2024-02-21T03:25:12;11.30;;;3.80;;
5867;SDS011;2960;49.142;7.768;2024-02-21T03:27:40;9.63;;;3.60;;
5867;SDS011;2960;49.142;7.768;2024-02-21T03:30:07;10.30;;;3.90;;
5867;SDS011;2960;49.142;7.768;2024-02-21T03:32:37;10.93;;;4.20;;
5867;SDS011;2960;49.142;7.768;2024-02-21T03:35:05;10.47;;;3.80;;
5867;SDS011;2960;49.142;7.768;2024-02-21T03:37:33;11.67;;;4.00;;
5867;SDS011;2960;49.142;7.768;2024-02-21T03:40:00;11.57;;;3.90;;
5867;SDS011;2960;49.142;7.768;2024-02-21T03:42:27;10.60;;;3.43;;
5867;SDS011;2960;49.142;7.768;2024-02-21T03:44:55;10.20;;;3.53;;
5867;SDS011;2960;49.142;7.768;2024-02-21T03:47:22;11.37;;;4.07;;
5867;SDS011;2960;49.142;7.768;2024-02-21T03:49:51;9.73;;;3.57;;
5867;SDS011;2960;49.142;7.768;2024-02-21T03:52:18;9.43;;;3.40;;
5867;SDS011;2960;49.142;7.768;2024-02-21T03:54:45;10.50;;;3.90;;
5867;SDS011;2960;49.142;7.768;2024-02-21T03:57:12;9.87;;;3.60;;
5867;SDS011;2960;49.142;7.768;2024-02-21T03:59:39;9.60;;;3.50;;
5867;SDS011;2960;49.142;7.768;2024-02-21T04:02:07;9.30;;;3.40;;
5867;SDS011;2960;49.142;7.768;2024-02-21T04:04:34;17.13;;;3.63;;
5867;SDS011;2960;49.142;7.768;2024-02-21T04:07:03;10.20;;;3.53;;
5867;SDS011;2960;49.142;7.768;2024-02-21T04:09:32;9.60;;;3.57;;
5867;SDS011;2960;49.142;7.768;2024-02-21T04:12:02;9.40;;;3.40;;
5867;SDS011;2960;49.142;7.768;2024-02-21T04:14:30;11.53;;;3.60;;
5867;SDS011;2960;49.142;7.768;2024-02-21T04:16:57;9.60;;;3.47;;
5867;SDS011;2960;49.142;7.768;2024-02-21T04:19:24;9.30;;;3.27;;
5867;SDS011;2960;49.142;7.768;2024-02-21T04:21:52;11.43;;;3.60;;
5867;SDS011;2960;49.142;7.768;2024-02-21T04:24:20;9.20;;;3.43;;
5867;SDS011;2960;49.142;7.768;2024-02-21T04:26:47;9.70;;;3.40;;
5867;SDS011;2960;49.142;7.768;2024-02-21T04:29:14;8.70;;;3.00;;
5867;SDS011;2960;49.142;7.768;2024-02-21T04:31:41;9.10;;;3.17;;
5867;SDS011;2960;49.142;7.768;2024-02-21T04:34:11;9.50;;;3.37;;
5867;SDS011;2960;49.142;7.768;2024-02-21T04:36:38;9.23;;;3.10;;
5867;SDS011;2960;49.142;7.768;2024-02-21T04:39:05;10.33;;;2.90;;
5867;SDS011;2960;49.142;7.768;2024-02-21T04:41:33;11.17;;;3.17;;
5867;SDS011;2960;49.142;7.768;2024-02-21T04:44:00;9.70;;;3.00;;
5867;SDS011;2960;49.142;7.768;2024-02-21T04:46:29;9.77;;;3.17;;
5867;SDS011;2960;49.142;7.768;2024-02-21T04:48:56;8.90;;;3.03;;
5867;SDS011;2960;49.142;7.768;2024-02-21T04:51:23;8.80;;;3.00;;
5867;SDS011;2960;49.142;7.768;2024-02-21T04:53:51;11.20;;;3.30;;
5867;SDS011;2960;49.142;7.768;2024-02-21T04:56:18;9.13;;;2.93;;
5867;SDS011;2960;49.142;7.768;2024-02-21T04:58:49;10.27;;;3.23;;
5867;SDS011;2960;49.142;7.768;2024-02-21T05:01:16;8.80;;;3.00;;
5867;SDS011;2960;49.142;7.768;2024-02-21T05:03:43;8.70;;;2.87;;
5867;SDS011;2960;49.142;7.768;2024-02-21T05:06:11;8.60;;;2.90;;
5867;SDS011;2960;49.142;7.768;2024-02-21T05:08:38;8.70;;;2.80;;
5867;SDS011;2960;49.142;7.768;2024-02-21T05:11:07;9.70;;;3.03;;
5867;SDS011;2960;49.142;7.768;2024-02-21T05:13:34;13.63;;;3.10;;
5867;SDS011;2960;49.142;7.768;2024-02-21T05:16:03;9.00;;;3.20;;
5867;SDS011;2960;49.142;7.768;2024-02-21T05:18:32;10.40;;;3.20;;
5867;SDS011;2960;49.142;7.768;2024-02-21T05:21:00;10.23;;;3.53;;
5867;SDS011;2960;49.142;7.768;2024-02-21T05:23:28;9.20;;;3.00;;
5867;SDS011;2960;49.142;7.768;2024-02-21T05:25:55;10.47;;;3.20;;
5867;SDS011;2960;49.142;7.768;2024-02-21T05:28:22;8.50;;;2.60;;
5867;SDS011;2960;49.142;7.768;2024-02-21T05:30:49;9.00;;;3.10;;
5867;SDS011;2960;49.142;7.768;2024-02-21T05:33:18;8.77;;;2.73;;
5867;SDS011;2960;49.142;7.768;2024-02-21T05:35:47;8.83;;;2.80;;
5867;SDS011;2960;49.142;7.768;2024-02-21T05:38:14;9.73;;;2.97;;
5867;SDS011;2960;49.142;7.768;2024-02-21T05:40:42;8.80;;;2.90;;
5867;SDS011;2960;49.142;7.768;2024-02-21T05:43:10;9.90;;;3.10;;
5867;SDS011;2960;49.142;7.768;2024-02-21T05:45:38;9.30;;;2.63;;
5867;SDS011;2960;49.142;7.768;2024-02-21T05:48:05;9.87;;;3.20;;
5867;SDS011;2960;49.142;7.768;2024-02-21T05:50:34;8.90;;;2.70;;
5867;SDS011;2960;49.142;7.768;2024-02-21T05:53:02;9.30;;;2.90;;
5867;SDS011;2960;49.142;7.768;2024-02-21T05:55:29;8.50;;;2.80;;
5867;SDS011;2960;49.142;7.768;2024-02-21T05:57:56;9.43;;;2.80;;
5867;SDS011;2960;49.142;7.768;2024-02-21T06:00:23;8.90;;;2.80;;
5867;SDS011;2960;49.142;7.768;2024-02-21T06:02:51;8.67;;;2.73;;
5867;SDS011;2960;49.142;7.768;2024-02-21T06:05:18;9.13;;;3.00;;
5867;SDS011;2960;49.142;7.768;2024-02-21T06:07:46;8.60;;;3.00;;
5867;SDS011;2960;49.142;7.768;2024-02-21T06:10:14;9.13;;;2.83;;
5867;SDS011;2960;49.142;7.768;2024-02-21T06:12:41;9.43;;;2.83;;
5867;SDS011;2960;49.142;7.768;2024-02-21T06:15:09;10.33;;;3.00;;
5867;SDS011;2960;49.142;7.768;2024-02-21T06:17:36;8.90;;;3.00;;
5867;SDS011;2960;49.142;7.768;2024-02-21T06:20:03;9.40;;;2.90;;
5867;SDS011;2960;49.142;7.768;2024-02-21T06:22:32;8.70;;;2.90;;
5867;SDS011;2960;49.142;7.768;2024-02-21T06:25:00;8.60;;;2.80;;
5867;SDS011;2960;49.142;7.768;2024-02-21T06:27:28;8.63;;;3.07;;
5867;SDS011;2960;49.142;7.768;2024-02-21T06:29:55;8.80;;;2.90;;
5867;SDS011;2960;49.142;7.768;2024-02-21T06:32:22;12.03;;;3.10;;
5867;SDS011;2960;49.142;7.768;2024-02-21T06:34:49;9.23;;;3.00;;
5867;SDS011;2960;49.142;7.768;2024-02-21T06:37:16;10.17;;;2.90;;
5867;SDS011;2960;49.142;7.768;2024-02-21T06:39:43;9.40;;;3.07;;
5867;SDS011;2960;49.142;7.768;2024-02-21T06:42:12;9.90;;;3.27;;
5867;SDS011;2960;49.142;7.768;2024-02-21T06:44:39;9.20;;;3.10;;
5867;SDS011;2960;49.142;7.768;2024-02-21T06:47:06;8.80;;;3.20;;
5867;SDS011;2960;49.142;7.768;2024-02-21T06:49:33;8.90;;;2.80;;
5867;SDS011;2960;49.142;7.768;2024-02-21T06:52:02;9.60;;;3.57;;
5867;SDS011;2960;49.142;7.768;2024-02-21T06:54:30;10.00;;;3.50;;
5867;SDS011;2960;49.142;7.768;2024-02-21T06:56:58;8.90;;;3.17;;
5867;SDS011;2960;49.142;7.768;2024-02-21T06:59:26;9.10;;;3.00;;
5867;SDS011;2960;49.142;7.768;2024-02-21T07:01:55;12.07;;;3.23;;
5867;SDS011;2960;49.142;7.768;2024-02-21T07:04:22;9.70;;;3.30;;
5867;SDS011;2960;49.142;7.768;2024-02-21T07:06:49;8.97;;;3.20;;
5867;SDS011;2960;49.142;7.768;2024-02-21T07:09:16;9.17;;;3.03;;
5867;SDS011;2960;49.142;7.768;2024-02-21T07:11:43;9.73;;;3.23;;
5867;SDS011;2960;49.142;7.768;2024-02-21T07:14:13;9.70;;;3.30;;
5867;SDS011;2960;49.142;7.768;2024-02-21T07:16:42;13.73;;;3.47;;
5867;SDS011;2960;49.142;7.768;2024-02-21T07:19:09;10.23;;;3.40;;
5867;SDS011;2960;49.142;7.768;2024-02-21T07:21:36;9.97;;;3.30;;
5867;SDS011;2960;49.142;7.768;2024-02-21T07:24:06;9.27;;;3.37;;
5867;SDS011;2960;49.142;7.768;2024-02-21T07:26:33;12.70;;;3.13;;
5867;SDS011;2960;49.142;7.768;2024-02-21T07:29:00;9.57;;;3.30;;
5867;SDS011;2960;49.142;7.768;2024-02-21T07:31:30;9.80;;;3.03;;
5867;SDS011;2960;49.142;7.768;2024-02-21T07:33:59;8.90;;;3.10;;
5867;SDS011;2960;49.142;7.768;2024-02-21T07:36:27;9.87;;;3.20;;
5867;SDS011;2960;49.142;7.768;2024-02-21T07:38:55;8.80;;;2.90;;
5867;SDS011;2960;49.142;7.768;2024-02-21T07:41:22;9.97;;;3.07;;
5867;SDS011;2960;49.142;7.768;2024-02-21T07:43:49;10.43;;;3.53;;
5867;SDS011;2960;49.142;7.768;2024-02-21T07:46:17;9.63;;;3.40;;
5867;SDS011;2960;49.142;7.768;2024-02-21T07:48:47;9.23;;;3.40;;
5867;SDS011;2960;49.142;7.768;2024-02-21T07:51:15;9.20;;;3.43;;
5867;SDS011;2960;49.142;7.768;2024-02-21T07:53:43;9.47;;;3.40;;
5867;SDS011;2960;49.142;7.768;2024-02-21T07:56:11;10.47;;;3.57;;
5867;SDS011;2960;49.142;7.768;2024-02-21T07:58:39;10.87;;;3.57;;
5867;SDS011;2960;49.142;7.768;2024-02-21T08:01:06;8.90;;;3.03;;
5867;SDS011;2960;49.142;7.768;2024-02-21T08:03:33;9.47;;;3.30;;
5867;SDS011;2960;49.142;7.768;2024-02-21T08:06:00;10.00;;;3.57;;
5867;SDS011;2960;49.142;7.768;2024-02-21T08:08:30;10.07;;;3.70;;
5867;SDS011;2960;49.142;7.768;2024-02-21T08:10:57;9.50;;;3.10;;
5867;SDS011;2960;49.142;7.768;2024-02-21T08:13:25;10.10;;;3.90;;
5867;SDS011;2960;49.142;7.768;2024-02-21T08:15:53;10.67;;;3.30;;
5867;SDS011;2960;49.142;7.768;2024-02-21T08:18:21;9.47;;;3.53;;
5867;SDS011;2960;49.142;7.768;2024-02-21T08:20:48;8.87;;;3.30;;
5867;SDS011;2960;49.142;7.768;2024-02-21T08:23:17;9.30;;;3.73;;
5867;SDS011;2960;49.142;7.768;2024-02-21T08:25:46;9.17;;;3.50;;
5867;SDS011;2960;49.142;7.768;2024-02-21T08:28:13;10.90;;;3.93;;
5867;SDS011;2960;49.142;7.768;2024-02-21T08:30:40;12.23;;;3.83;;
5867;SDS011;2960;49.142;7.768;2024-02-21T08:33:13;10.70;;;3.70;;
5867;SDS011;2960;49.142;7.768;2024-02-21T08:35:41;9.03;;;3.50;;
5867;SDS011;2960;49.142;7.768;2024-02-21T08:38:09;10.27;;;4.00;;
5867;SDS011;2960;49.142;7.768;2024-02-21T08:40:36;10.20;;;3.90;;
5867;SDS011;2960;49.142;7.768;2024-02-21T08:43:04;10.27;;;3.70;;
5867;SDS011;2960;49.142;7.768;2024-02-21T08:45:32;10.10;;;3.30;;
5867;SDS011;2960;49.142;7.768;2024-02-21T08:47:59;10.53;;;3.77;;
5867;SDS011;2960;49.142;7.768;2024-02-21T08:50:26;10.60;;;3.90;;
5867;SDS011;2960;49.142;7.768;2024-02-21T08:52:53;9.37;;;3.50;;
5867;SDS011;2960;49.142;7.768;2024-02-21T08:55:20;11.13;;;4.00;;
5867;SDS011;2960;49.142;7.768;2024-02-21T08:57:47;9.40;;;4.10;;
5867;SDS011;2960;49.142;7.768;2024-02-21T09:00:17;10.70;;;4.00;;
5867;SDS011;2960;49.142;7.768;2024-02-21T09:02:48;10.67;;;3.80;;
5867;SDS011;2960;49.142;7.768;2024-02-21T09:05:16;10.27;;;3.70;;
5867;SDS011;2960;49.142;7.768;2024-02-21T09:07:43;10.10;;;3.70;;
5867;SDS011;2960;49.142;7.768;2024-02-21T09:10:10;10.80;;;3.93;;
5867;SDS011;2960;49.142;7.768;2024-02-21T09:12:37;10.10;;;3.87;;
5867;SDS011;2960;49.142;7.768;2024-02-21T09:15:05;10.70;;;4.10;;
5867;SDS011;2960;49.142;7.768;2024-02-21T09:17:35;10.40;;;3.97;;
5867;SDS011;2960;49.142;7.768;2024-02-21T09:20:02;10.53;;;4.07;;
5867;SDS011;2960;49.142;7.768;2024-02-21T09:22:31;10.30;;;3.80;;
5867;SDS011;2960;49.142;7.768;2024-02-21T09:24:59;10.00;;;3.63;;
5867;SDS011;2960;49.142;7.768;2024-02-21T09:27:28;10.90;;;3.80;;
5867;SDS011;2960;49.142;7.768;2024-02-21T09:29:55;9.93;;;3.80;;
5867;SDS011;2960;49.142;7.768;2024-02-21T09:32:22;9.77;;;3.50;;
5867;SDS011;2960;49.142;7.768;2024-02-21T09:34:51;9.40;;;3.60;;
5867;SDS011;2960;49.142;7.768;2024-02-21T09:37:22;10.47;;;3.60;;
5867;SDS011;2960;49.142;7.768;2024-02-21T09:39:50;10.00;;;3.63;;
5867;SDS011;2960;49.142;7.768;2024-02-21T09:42:18;9.90;;;3.60;;
5867;SDS011;2960;49.142;7.768;2024-02-21T09:44:48;10.27;;;3.63;;
5867;SDS011;2960;49.142;7.768;2024-02-21T09:47:17;10.23;;;4.00;;
5867;SDS011;2960;49.142;7.768;2024-02-21T09:49:50;11.20;;;3.47;;
5867;SDS011;2960;49.142;7.768;2024-02-21T09:52:18;9.77;;;3.67;;
5867;SDS011;2960;49.142;7.768;2024-02-21T09:54:47;10.50;;;3.60;;
5867;SDS011;2960;49.142;7.768;2024-02-21T09:57:16;9.60;;;3.60;;
5867;SDS011;2960;49.142;7.768;2024-02-21T09:59:43;10.10;;;3.33;;
5867;SDS011;2960;49.142;7.768;2024-02-21T10:02:11;9.20;;;3.50;;
5867;SDS011;2960;49.142;7.768;2024-02-21T10:04:39;9.90;;;3.63;;
5867;SDS011;2960;49.142;7.768;2024-02-21T10:07:08;9.30;;;3.33;;
5867;SDS011;2960;49.142;7.768;2024-02-21T10:09:36;10.30;;;3.70;;
5867;SDS011;2960;49.142;7.768;2024-02-21T10:12:07;9.50;;;3.40;;
5867;SDS011;2960;49.142;7.768;2024-02-21T10:14:35;10.00;;;3.50;;
5867;SDS011;2960;49.142;7.768;2024-02-21T10:17:02;9.13;;;3.10;;
5867;SDS011;2960;49.142;7.768;2024-02-21T10:19:34;9.37;;;3.50;;
5867;SDS011;2960;49.142;7.768;2024-02-21T10:22:02;9.50;;;3.63;;
5867;SDS011;2960;49.142;7.768;2024-02-21T10:24:34;10.63;;;3.60;;
5867;SDS011;2960;49.142;7.768;2024-02-21T10:27:03;11.50;;;4.00;;
5867;SDS011;2960;49.142;7.768;2024-02-21T10:29:33;11.40;;;3.50;;
5867;SDS011;2960;49.142;7.768;2024-02-21T10:32:04;10.73;;;3.70;;
5867;SDS011;2960;49.142;7.768;2024-02-21T10:34:33;9.50;;;3.40;;
5867;SDS011;2960;49.142;7.768;2024-02-21T10:37:01;9.70;;;3.80;;
5867;SDS011;2960;49.142;7.768;2024-02-21T10:39:29;11.70;;;3.53;;
5867;SDS011;2960;49.142;7.768;2024-02-21T10:41:59;9.87;;;3.67;;
5867;SDS011;2960;49.142;7.768;2024-02-21T10:44:29;9.80;;;3.70;;
5867;SDS011;2960;49.142;7.768;2024-02-21T10:46:57;9.87;;;3.97;;
5867;SDS011;2960;49.142;7.768;2024-02-21T10:49:25;9.63;;;3.80;;
5867;SDS011;2960;49.142;7.768;2024-02-21T10:51:54;10.37;;;4.10;;
5867;SDS011;2960;49.142;7.768;2024-02-21T10:57:14;9.70;;;3.90;;
5867;SDS011;2960;49.142;7.768;2024-02-21T10:59:42;9.77;;;3.60;;
5867;SDS011;2960;49.142;7.768;2024-02-21T11:02:11;10.10;;;3.53;;
5867;SDS011;2960;49.142;7.768;2024-02-21T11:04:38;11.30;;;3.73;;
5867;SDS011;2960;49.142;7.768;2024-02-21T11:07:07;9.60;;;3.80;;
5867;SDS011;2960;49.142;7.768;2024-02-21T11:09:36;11.10;;;3.70;;
5867;SDS011;2960;49.142;7.768;2024-02-21T11:12:03;11.10;;;4.47;;
5867;SDS011;2960;49.142;7.768;2024-02-21T11:14:33;9.70;;;3.93;;
5867;SDS011;2960;49.142;7.768;2024-02-21T11:17:02;10.43;;;4.10;;
5867;SDS011;2960;49.142;7.768;2024-02-21T11:19:40;10.30;;;3.93;;
5867;SDS011;2960;49.142;7.768;2024-02-21T11:22:14;11.40;;;4.20;;
5867;SDS011;2960;49.142;7.768;2024-02-21T11:24:42;10.57;;;4.10;;
5867;SDS011;2960;49.142;7.768;2024-02-21T11:27:11;9.60;;;3.77;;
5867;SDS011;2960;49.142;7.768;2024-02-21T11:29:41;10.60;;;4.20;;
5867;SDS011;2960;49.142;7.768;2024-02-21T11:32:09;11.13;;;4.10;;
5867;SDS011;2960;49.142;7.768;2024-02-21T11:34:37;9.57;;;3.70;;
5867;SDS011;2960;49.142;7.768;2024-02-21T11:37:12;10.77;;;4.20;;
5867;SDS011;2960;49.142;7.768;2024-02-21T11:39:44;10.97;;;3.83;;
5867;SDS011;2960;49.142;7.768;2024-02-21T11:42:11;10.70;;;4.00;;
5867;SDS011;2960;49.142;7.768;2024-02-21T11:44:38;9.90;;;4.00;;
5867;SDS011;2960;49.142;7.768;2024-02-21T11:47:08;12.63;;;4.13;;
5867;SDS011;2960;49.142;7.768;2024-02-21T11:49:36;10.57;;;4.13;;
5867;SDS011;2960;49.142;7.768;2024-02-21T11:52:05;9.60;;;3.60;;
5867;SDS011;2960;49.142;7.768;2024-02-21T11:54:32;9.80;;;3.70;;
5867;SDS011;2960;49.142;7.768;2024-02-21T11:57:00;9.83;;;4.10;;
5867;SDS011;2960;49.142;7.768;2024-02-21T11:59:29;13.00;;;4.10;;
5867;SDS011;2960;49.142;7.768;2024-02-21T12:01:58;9.90;;;4.00;;
5867;SDS011;2960;49.142;7.768;2024-02-21T12:04:27;10.40;;;4.20;;
5867;SDS011;2960;49.142;7.768;2024-02-21T12:06:58;10.00;;;4.17;;
5867;SDS011;2960;49.142;7.768;2024-02-21T12:09:25;11.03;;;4.73;;
5867;SDS011;2960;49.142;7.768;2024-02-21T12:11:59;9.53;;;3.60;;
5867;SDS011;2960;49.142;7.768;2024-02-21T12:14:28;10.53;;;4.07;;
5867;SDS011;2960;49.142;7.768;2024-02-21T12:16:56;9.53;;;3.53;;
5867;SDS011;2960;49.142;7.768;2024-02-21T12:19:24;11.40;;;4.07;;
5867;SDS011;2960;49.142;7.768;2024-02-21T12:21:53;10.83;;;4.20;;
5867;SDS011;2960;49.142;7.768;2024-02-21T12:24:23;11.60;;;3.90;;
5867;SDS011;2960;49.142;7.768;2024-02-21T12:26:51;10.23;;;3.63;;
5867;SDS011;2960;49.142;7.768;2024-02-21T12:29:19;10.47;;;3.87;;
5867;SDS011;2960;49.142;7.768;2024-02-21T12:31:46;9.57;;;3.50;;
5867;SDS011;2960;49.142;7.768;2024-02-21T12:34:14;9.70;;;3.70;;
5867;SDS011;2960;49.142;7.768;2024-02-21T12:36:42;9.20;;;3.30;;
5867;SDS011;2960;49.142;7.768;2024-02-21T12:39:13;10.20;;;3.87;;
5867;SDS011;2960;49.142;7.768;2024-02-21T12:41:41;10.37;;;3.87;;
5867;SDS011;2960;49.142;7.768;2024-02-21T12:44:09;10.50;;;4.17;;
5867;SDS011;2960;49.142;7.768;2024-02-21T12:46:37;10.13;;;4.00;;
5867;SDS011;2960;49.142;7.768;2024-02-21T12:49:05;9.43;;;3.63;;
5867;SDS011;2960;49.142;7.768;2024-02-21T12:51:33;9.27;;;3.53;;
5867;SDS011;2960;49.142;7.768;2024-02-21T12:54:01;10.07;;;3.93;;
5867;SDS011;2960;49.142;7.768;2024-02-21T12:56:30;10.10;;;3.97;;
5867;SDS011;2960;49.142;7.768;2024-02-21T12:58:57;9.60;;;3.60;;
5867;SDS011;2960;49.142;7.768;2024-02-21T13:01:25;9.90;;;3.97;;
5867;SDS011;2960;49.142;7.768;2024-02-21T13:03:53;13.53;;;4.13;;
5867;SDS011;2960;49.142;7.768;2024-02-21T13:06:20;10.03;;;3.57;;
5867;SDS011;2960;49.142;7.768;2024-02-21T13:08:48;10.47;;;4.03;;
5867;SDS011;2960;49.142;7.768;2024-02-21T13:11:15;10.03;;;3.47;;
5867;SDS011;2960;49.142;7.768;2024-02-21T13:13:47;9.50;;;3.70;;
5867;SDS011;2960;49.142;7.768;2024-02-21T13:16:14;10.93;;;3.90;;
5867;SDS011;2960;49.142;7.768;2024-02-21T13:18:41;11.13;;;3.80;;
5867;SDS011;2960;49.142;7.768;2024-02-21T13:21:10;9.30;;;3.63;;
5867;SDS011;2960;49.142;7.768;2024-02-21T13:23:37;9.33;;;3.67;;
5867;SDS011;2960;49.142;7.768;2024-02-21T13:26:06;11.23;;;4.10;;
5867;SDS011;2960;49.142;7.768;2024-02-21T13:28:33;11.80;;;4.30;;
5867;SDS011;2960;49.142;7.768;2024-02-21T13:31:02;9.63;;;4.00;;
5867;SDS011;2960;49.142;7.768;2024-02-21T13:33:29;9.87;;;4.10;;
5867;SDS011;2960;49.142;7.768;2024-02-21T13:35:56;9.23;;;3.50;;
5867;SDS011;2960;49.142;7.768;2024-02-21T13:38:23;10.00;;;4.07;;
5867;SDS011;2960;49.142;7.768;2024-02-21T13:40:52;10.37;;;3.70;;
5867;SDS011;2960;49.142;7.768;2024-02-21T13:43:19;11.13;;;3.80;;
5867;SDS011;2960;49.142;7.768;2024-02-21T13:46:00;10.23;;;4.03;;
5867;SDS011;2960;49.142;7.768;2024-02-21T13:48:34;12.80;;;4.37;;
5867;SDS011;2960;49.142;7.768;2024-02-21T13:51:05;13.87;;;4.53;;
5867;SDS011;2960;49.142;7.768;2024-02-21T13:53:33;9.70;;;3.83;;
5867;SDS011;2960;49.142;7.768;2024-02-21T13:56:00;9.80;;;3.90;;
5867;SDS011;2960;49.142;7.768;2024-02-21T13:58:27;10.50;;;4.10;;
5867;SDS011;2960;49.142;7.768;2024-02-21T14:00:55;9.47;;;3.80;;
5867;SDS011;2960;49.142;7.768;2024-02-21T14:03:23;9.43;;;3.70;;
5867;SDS011;2960;49.142;7.768;2024-02-21T14:05:51;10.03;;;4.10;;
5867;SDS011;2960;49.142;7.768;2024-02-21T14:08:18;11.03;;;3.90;;
5867;SDS011;2960;49.142;7.768;2024-02-21T14:10:45;10.00;;;4.07;;
5867;SDS011;2960;49.142;7.768;2024-02-21T14:13:12;9.77;;;3.90;;
5867;SDS011;2960;49.142;7.768;2024-02-21T14:15:43;9.70;;;3.90;;
5867;SDS011;2960;49.142;7.768;2024-02-21T14:18:13;9.60;;;3.97;;
5867;SDS011;2960;49.142;7.768;2024-02-21T14:20:42;9.67;;;4.03;;
5867;SDS011;2960;49.142;7.768;2024-02-21T14:23:12;10.10;;;4.10;;
5867;SDS011;2960;49.142;7.768;2024-02-21T14:25:40;10.63;;;4.10;;
5867;SDS011;2960;49.142;7.768;2024-02-21T14:28:07;11.10;;;3.83;;
5867;SDS011;2960;49.142;7.768;2024-02-21T14:30:35;10.37;;;4.00;;
5867;SDS011;2960;49.142;7.768;2024-02-21T14:33:02;11.20;;;4.20;;
5867;SDS011;2960;49.142;7.768;2024-02-21T14:35:30;10.47;;;3.90;;
5867;SDS011;2960;49.142;7.768;2024-02-21T14:38:00;9.60;;;4.07;;
5867;SDS011;2960;49.142;7.768;2024-02-21T14:40:27;11.90;;;3.80;;
5867;SDS011;2960;49.142;7.768;2024-02-21T14:42:55;10.40;;;4.10;;
5867;SDS011;2960;49.142;7.768;2024-02-21T14:45:22;10.83;;;4.10;;
5867;SDS011;2960;49.142;7.768;2024-02-21T14:47:49;10.60;;;4.23;;
5867;SDS011;2960;49.142;7.768;2024-02-21T14:50:16;9.77;;;3.70;;
5867;SDS011;2960;49.142;7.768;2024-02-21T14:52:43;9.90;;;3.90;;
5867;SDS011;2960;49.142;7.768;2024-02-21T14:55:14;9.83;;;3.90;;
5867;SDS011;2960;49.142;7.768;2024-02-21T14:57:42;10.47;;;4.10;;
5867;SDS011;2960;49.142;7.768;2024-02-21T15:00:09;10.20;;;4.10;;
5867;SDS011;2960;49.142;7.768;2024-02-21T15:02:38;9.60;;;3.63;;
5867;SDS011;2960;49.142;7.768;2024-02-21T15:05:05;9.90;;;3.73;;
5867;SDS011;2960;49.142;7.768;2024-02-21T15:07:33;9.73;;;3.60;;
5867;SDS011;2960;49.142;7.768;2024-02-21T15:10:00;9.50;;;3.73;;
5867;SDS011;2960;49.142;7.768;2024-02-21T15:12:30;10.57;;;4.53;;
5867;SDS011;2960;49.142;7.768;2024-02-21T15:14:57;11.07;;;3.87;;